Time;durP1;ratioP1;P1;durP2;ratioP2;P2;SDS_P1;SDS_P2;PMS_P1;PMS_P2;Temp;Humidity;BMP_temperature;BMP_pressure;BME280_temperature;BME280_humidity;BME280_pressure;Samples;Min_cycle;Max_cycle;Signal;HPM_P1;HPM_P2
2023/11/22 00:00:08;;;;;;;16.20;10.52;;;;;;;3.26;100.00;102596.41;5115237;28;20051;-53
2023/11/22 00:02:38;;;;;;;19.17;10.95;;;;;;;3.25;100.00;102595.56;5115535;28;20054;-53
2023/11/22 00:05:09;;;;;;;16.13;10.32;;;;;;;3.19;100.00;102591.25;5108308;28;20051;-53
2023/11/22 00:07:37;;;;;;;19.40;11.07;;;;;;;3.21;100.00;102593.84;5112054;28;20056;-53
2023/11/22 00:10:08;;;;;;;19.38;11.32;;;;;;;3.18;100.00;102592.13;5111886;28;20048;-53
2023/11/22 00:12:38;;;;;;;15.55;10.93;;;;;;;3.19;100.00;102585.19;5111338;28;20089;-50
2023/11/22 00:15:09;;;;;;;19.20;10.90;;;;;;;3.19;100.00;102580.88;5111203;28;20058;-50
2023/11/22 00:17:38;;;;;;;17.60;10.48;;;;;;;3.16;100.00;102583.50;5111787;28;20051;-51
2023/11/22 00:20:08;;;;;;;19.63;10.48;;;;;;;3.12;100.00;102583.50;5112169;28;20043;-52
2023/11/22 00:22:37;;;;;;;17.48;10.90;;;;;;;3.18;100.00;102583.47;5113364;28;20043;-53
2023/11/22 00:25:05;;;;;;;20.75;11.75;;;;;;;3.13;100.00;102591.28;5110212;28;20056;-54
2023/11/22 00:27:34;;;;;;;18.95;11.25;;;;;;;3.13;100.00;102591.28;5109643;28;20395;-50
2023/11/22 00:30:02;;;;;;;17.10;10.60;;;;;;;3.07;100.00;102596.53;5114151;28;20039;-50
2023/11/22 00:32:30;;;;;;;19.52;11.57;;;;;;;3.07;100.00;102606.06;5110877;28;20800;-53
2023/11/22 00:35:00;;;;;;;19.25;11.75;;;;;;;3.04;100.00;102613.03;5111827;28;20077;-53
2023/11/22 00:37:28;;;;;;;18.67;11.13;;;;;;;3.02;100.00;102619.09;5114487;28;20048;-51
2023/11/22 00:39:56;;;;;;;19.05;11.38;;;;;;;3.02;100.00;102608.69;5114190;28;20039;-50
2023/11/22 00:42:24;;;;;;;19.85;10.73;;;;;;;2.99;100.00;102606.13;5113170;28;20071;-53
2023/11/22 00:44:52;;;;;;;17.63;10.65;;;;;;;2.96;100.00;102603.50;5113042;28;20104;-49
2023/11/22 00:47:20;;;;;;;18.83;11.38;;;;;;;2.93;100.00;102603.53;5113334;28;20394;-53
2023/11/22 00:49:48;;;;;;;20.73;12.10;;;;;;;2.96;100.00;102620.00;5114280;28;20063;-50
2023/11/22 00:52:18;;;;;;;18.52;10.93;;;;;;;2.91;100.00;102616.53;5114041;28;20047;-50
2023/11/22 00:54:47;;;;;;;17.77;10.27;;;;;;;2.93;100.00;102613.94;5113677;28;20079;-52
2023/11/22 00:57:15;;;;;;;17.08;10.07;;;;;;;2.92;100.00;102620.00;5108958;28;20055;-52
2023/11/22 00:59:43;;;;;;;16.85;10.07;;;;;;;2.92;100.00;102633.88;5111705;28;20071;-51
2023/11/22 01:02:11;;;;;;;18.27;9.95;;;;;;;2.87;100.00;102626.09;5111649;28;20059;-53
2023/11/22 01:04:40;;;;;;;17.80;10.05;;;;;;;2.83;100.00;102633.91;5108496;28;20063;-49
2023/11/22 01:07:08;;;;;;;19.27;10.15;;;;;;;2.80;100.00;102633.94;5109626;28;20047;-52
2023/11/22 01:09:37;;;;;;;17.13;9.77;;;;;;;2.83;100.00;102632.16;5110630;28;20039;-50
2023/11/22 01:12:09;;;;;;;18.42;10.27;;;;;;;2.83;100.00;102634.75;5108235;28;20055;-45
2023/11/22 01:14:37;;;;;;;19.45;10.93;;;;;;;2.84;100.00;102644.28;5112206;28;20097;-45
2023/11/22 01:17:05;;;;;;;18.08;10.68;;;;;;;2.82;100.00;102653.84;5111160;28;20734;-45
2023/11/22 01:19:34;;;;;;;17.00;9.73;;;;;;;2.78;100.00;102651.25;5110029;28;20044;-45
2023/11/22 01:22:02;;;;;;;18.15;10.63;;;;;;;2.77;100.00;102658.19;5109821;28;20097;-46
2023/11/22 01:24:30;;;;;;;17.13;9.75;;;;;;;2.76;100.00;102663.41;5111989;28;20050;-46
2023/11/22 01:27:00;;;;;;;15.38;9.82;;;;;;;2.78;100.00;102669.44;5108292;28;20122;-46
2023/11/22 01:29:28;;;;;;;16.67;9.50;;;;;;;2.77;100.00;102676.38;5110929;28;20054;-46
2023/11/22 01:31:56;;;;;;;18.80;9.55;;;;;;;2.74;100.00;102684.19;5111169;28;20038;-46
2023/11/22 01:34:25;;;;;;;17.48;9.68;;;;;;;2.75;100.00;102691.09;5109456;28;20036;-45
2023/11/22 01:36:53;;;;;;;16.80;9.63;;;;;;;2.75;100.00;102691.09;5109832;28;20051;-46
2023/11/22 01:39:21;;;;;;;17.20;9.93;;;;;;;2.71;100.00;102678.97;5108964;28;20055;-48
2023/11/22 01:41:50;;;;;;;16.17;9.52;;;;;;;2.69;100.00;102679.00;5109374;28;20410;-47
2023/11/22 01:44:20;;;;;;;17.27;9.57;;;;;;;2.68;100.00;102684.19;5112874;28;20040;-46
2023/11/22 01:46:48;;;;;;;16.02;9.05;;;;;;;2.70;100.00;102685.06;5109837;28;20112;-46
2023/11/22 01:49:16;;;;;;;17.17;10.77;;;;;;;2.65;100.00;102679.88;5108868;28;20494;-47
2023/11/22 01:51:45;;;;;;;15.88;8.95;;;;;;;2.64;100.00;102685.94;5108941;28;20062;-48
2023/11/22 01:54:13;;;;;;;16.65;9.90;;;;;;;2.64;100.00;102682.47;5108702;28;20419;-46
2023/11/22 01:56:43;;;;;;;16.65;10.07;;;;;;;2.64;100.00;102679.88;5107516;28;20118;-48
2023/11/22 01:59:12;;;;;;;16.63;9.75;;;;;;;2.63;100.00;102691.13;5108767;28;20050;-46
2023/11/22 02:01:43;;;;;;;20.23;9.93;;;;;;;2.60;100.00;102692.00;5109678;28;20139;-46
2023/11/22 02:04:13;;;;;;;19.00;9.95;;;;;;;2.59;100.00;102689.41;5109147;28;20533;-48
2023/11/22 02:06:42;;;;;;;16.83;10.20;;;;;;;2.62;100.00;102681.59;5111594;28;20043;-47
2023/11/22 02:09:13;;;;;;;17.45;9.55;;;;;;;2.57;100.00;102676.44;5112789;28;20429;-48
2023/11/22 02:11:42;;;;;;;17.20;10.05;;;;;;;2.56;100.00;102672.09;5112908;28;20061;-48
2023/11/22 02:14:10;;;;;;;16.13;9.18;;;;;;;2.52;100.00;102676.44;5112821;28;20398;-47
2023/11/22 02:16:40;;;;;;;19.52;9.73;;;;;;;2.51;100.00;102679.06;5111543;28;20048;-46
2023/11/22 02:19:15;;;;;;;16.27;9.40;;;;;;;2.51;100.00;102682.50;5107972;28;20044;-48
2023/11/22 02:21:44;;;;;;;17.85;10.00;;;;;;;2.53;100.00;102688.53;5108649;28;20490;-47
2023/11/22 02:24:13;;;;;;;17.70;10.27;;;;;;;2.53;100.00;102687.69;5108570;28;20525;-47
2023/11/22 02:26:44;;;;;;;17.20;9.70;;;;;;;2.56;100.00;102687.69;5107761;28;20050;-47
2023/11/22 02:29:12;;;;;;;18.25;10.13;;;;;;;2.52;100.00;102696.34;5111360;28;20150;-46
2023/11/22 02:31:42;;;;;;;17.88;9.68;;;;;;;2.49;100.00;102688.56;5109243;28;20035;-48
2023/11/22 02:34:11;;;;;;;15.88;9.27;;;;;;;2.46;100.00;102684.25;5108718;28;20376;-48
2023/11/22 02:36:39;;;;;;;17.55;10.38;;;;;;;2.45;100.00;102698.09;5108878;28;20051;-47
2023/11/22 02:39:08;;;;;;;16.60;10.07;;;;;;;2.42;100.00;102703.28;5108461;28;20039;-47
2023/11/22 02:41:38;;;;;;;17.60;9.98;;;;;;;2.40;100.00;102697.25;5106776;28;20056;-46
2023/11/22 02:44:07;;;;;;;17.73;10.50;;;;;;;2.39;100.00;102697.22;5109219;28;20047;-46
2023/11/22 02:46:35;;;;;;;17.90;10.10;;;;;;;2.39;100.00;102697.22;5112274;28;20056;-47
2023/11/22 02:49:04;;;;;;;17.10;9.15;;;;;;;2.40;100.00;102696.38;5112289;28;20532;-47
2023/11/22 02:51:32;;;;;;;17.05;9.65;;;;;;;2.38;100.00;102688.59;5112007;28;20052;-46
2023/11/22 02:54:00;;;;;;;17.50;9.43;;;;;;;2.38;100.00;102691.19;5111806;28;20097;-47
2023/11/22 02:56:28;;;;;;;17.80;9.95;;;;;;;2.38;100.00;102685.97;5110962;28;20059;-47
2023/11/22 02:59:00;;;;;;;17.30;10.60;;;;;;;2.38;100.00;102696.38;5111974;28;20130;-47
2023/11/22 03:01:29;;;;;;;16.60;9.65;;;;;;;2.37;100.00;102689.44;5111822;28;20039;-50
2023/11/22 03:03:59;;;;;;;17.45;10.32;;;;;;;2.36;100.00;102691.19;5108684;28;20581;-47
2023/11/22 03:06:27;;;;;;;16.45;8.88;;;;;;;2.34;100.00;102694.66;5108146;28;20062;-49
2023/11/22 03:08:56;;;;;;;18.52;9.55;;;;;;;2.32;100.00;102689.47;5108840;28;20047;-48
2023/11/22 03:11:24;;;;;;;19.10;10.13;;;;;;;2.28;100.00;102694.66;5105682;28;20138;-46
2023/11/22 03:13:53;;;;;;;17.52;9.68;;;;;;;2.31;100.00;102692.06;5107319;28;20051;-50
2023/11/22 03:16:22;;;;;;;18.02;9.73;;;;;;;2.28;100.00;102692.06;5110148;28;20044;-49
2023/11/22 03:18:50;;;;;;;15.90;9.10;;;;;;;2.26;100.00;102688.59;5115631;28;20048;-46
2023/11/22 03:21:19;;;;;;;18.17;10.07;;;;;;;2.24;100.00;102691.19;5115724;28;20039;-46
2023/11/22 03:23:47;;;;;;;18.08;9.05;;;;;;;2.27;100.00;102695.53;5114767;28;20402;-47
2023/11/22 03:26:15;;;;;;;16.80;9.80;;;;;;;2.27;100.00;102695.53;5115915;28;20457;-46
2023/11/22 03:28:43;;;;;;;18.80;10.30;;;;;;;2.24;100.00;102690.34;5116108;28;20506;-46
2023/11/22 03:31:11;;;;;;;17.02;9.50;;;;;;;2.22;100.00;102698.13;5111793;28;20522;-49
2023/11/22 03:33:41;;;;;;;18.45;9.50;;;;;;;2.23;100.00;102691.22;5112374;28;20517;-47
2023/11/22 03:36:11;;;;;;;15.02;9.25;;;;;;;2.20;100.00;102694.66;5111108;28;20051;-47
2023/11/22 03:38:40;;;;;;;14.63;8.48;;;;;;;2.19;100.00;102705.91;5112421;28;20039;-45
2023/11/22 03:41:08;;;;;;;16.70;9.93;;;;;;;2.18;100.00;102717.16;5109647;28;20054;-47
2023/11/22 03:43:36;;;;;;;19.88;10.25;;;;;;;2.19;100.00;102730.13;5112154;28;20460;-48
2023/11/22 03:46:07;;;;;;;17.58;9.73;;;;;;;2.19;100.00;102730.13;5111576;28;20047;-44
2023/11/22 03:48:35;;;;;;;18.77;9.93;;;;;;;2.17;100.00;102746.59;5111993;28;20126;-45
2023/11/22 03:51:05;;;;;;;22.45;10.80;;;;;;;2.17;100.00;102755.25;5111450;27;20114;-47
2023/11/22 03:53:33;;;;;;;16.73;10.40;;;;;;;2.17;100.00;102760.44;5111909;28;20100;-48
2023/11/22 03:56:01;;;;;;;18.73;9.68;;;;;;;2.17;100.00;102757.84;5114092;28;20075;-45
2023/11/22 03:58:29;;;;;;;18.00;9.85;;;;;;;2.17;100.00;102770.81;5115652;27;20061;-46
2023/11/22 04:00:58;;;;;;;17.35;9.65;;;;;;;2.16;100.00;102771.69;5115130;28;20055;-45
2023/11/22 04:03:26;;;;;;;19.38;10.52;;;;;;;2.14;100.00;102778.63;5113300;28;20040;-45
2023/11/22 04:05:55;;;;;;;19.30;10.48;;;;;;;2.10;100.00;102782.06;5109268;28;20051;-52
2023/11/22 04:08:25;;;;;;;19.98;9.90;;;;;;;2.11;100.00;102794.16;5112347;28;20506;-52
2023/11/22 04:10:53;;;;;;;17.77;9.95;;;;;;;2.11;100.00;102794.16;5114903;28;20047;-52
2023/11/22 04:13:25;;;;;;;17.80;9.88;;;;;;;2.12;100.00;102797.66;5114916;28;20043;-50
2023/11/22 04:15:53;;;;;;;15.63;9.43;;;;;;;2.07;100.00;102797.63;5113637;28;20058;-49
2023/11/22 04:18:21;;;;;;;20.60;10.13;;;;;;;2.04;100.00;102797.63;5113774;28;20093;-51
2023/11/22 04:20:50;;;;;;;20.83;10.82;;;;;;;2.02;100.00;102799.38;5114776;28;20123;-52
2023/11/22 04:23:18;;;;;;;20.98;11.18;;;;;;;2.03;100.00;102790.69;5115013;27;20444;-52
2023/11/22 04:25:49;;;;;;;17.02;9.95;;;;;;;2.00;100.00;102794.19;5114239;28;20051;-52
2023/11/22 04:28:17;;;;;;;17.40;10.52;;;;;;;1.99;100.00;102788.94;5113744;28;20247;-51
2023/11/22 04:30:46;;;;;;;18.92;9.75;;;;;;;1.98;100.00;102789.84;5110876;28;20104;-51
2023/11/22 04:33:14;;;;;;;19.42;10.25;;;;;;;1.96;100.00;102801.94;5111953;28;20047;-50
2023/11/22 04:35:46;;;;;;;18.80;10.82;;;;;;;1.99;100.00;102804.53;5114636;28;20490;-52
2023/11/22 04:38:14;;;;;;;18.95;10.23;;;;;;;1.98;100.00;102797.63;5114597;28;20051;-51
2023/11/22 04:40:42;;;;;;;18.15;9.45;;;;;;;1.92;100.00;102800.19;5113545;28;20071;-51
2023/11/22 04:43:12;;;;;;;18.75;10.25;;;;;;;1.88;100.00;102791.53;5111230;28;20051;-50
2023/11/22 04:45:40;;;;;;;19.65;10.45;;;;;;;1.85;100.00;102801.91;5113554;28;20047;-50
2023/11/22 04:48:09;;;;;;;20.25;10.88;;;;;;;1.83;100.00;102801.91;5114107;28;20070;-49
2023/11/22 04:50:37;;;;;;;20.67;10.13;;;;;;;1.84;100.00;102789.78;5111092;28;20048;-50
2023/11/22 04:53:05;;;;;;;18.20;10.43;;;;;;;1.82;100.00;102802.75;5111577;28;20035;-52
2023/11/22 04:55:33;;;;;;;16.88;10.32;;;;;;;1.80;100.00;102801.91;5109515;28;20160;-54
2023/11/22 04:58:05;;;;;;;21.13;10.35;;;;;;;1.78;100.00;102797.56;5111465;27;20052;-52
2023/11/22 05:00:35;;;;;;;17.05;9.95;;;;;;;1.76;100.00;102800.16;5111666;28;20092;-50
2023/11/22 05:03:03;;;;;;;18.08;10.10;;;;;;;1.73;100.00;102812.25;5111758;28;20067;-53
2023/11/22 05:05:32;;;;;;;19.63;10.10;;;;;;;1.67;100.00;102813.09;5111267;28;20054;-51
2023/11/22 05:08:00;;;;;;;17.70;9.30;;;;;;;1.64;100.00;102813.09;5111698;28;20059;-53
2023/11/22 05:10:28;;;;;;;17.30;9.35;;;;;;;1.60;100.00;102819.13;5110138;28;20094;-53
2023/11/22 05:12:59;;;;;;;19.27;10.80;;;;;;;1.56;100.00;102809.59;5111104;28;20036;-51
2023/11/22 05:15:27;;;;;;;17.30;9.65;;;;;;;1.52;100.00;102819.09;5113124;28;20494;-52
2023/11/22 05:17:59;;;;;;;18.52;10.57;;;;;;;1.47;100.00;102806.13;5111585;28;20073;-51
2023/11/22 05:20:28;;;;;;;20.05;10.32;;;;;;;1.47;100.00;102810.41;5110299;28;20046;-50
2023/11/22 05:22:56;;;;;;;16.63;10.20;;;;;;;1.43;100.00;102804.38;5111497;28;20563;-52
2023/11/22 05:25:24;;;;;;;20.85;9.98;;;;;;;1.40;100.00;102808.66;5113086;28;20056;-52
2023/11/22 05:27:52;;;;;;;17.05;9.65;;;;;;;1.35;100.00;102808.66;5111299;28;20050;-51
2023/11/22 05:30:21;;;;;;;17.17;9.90;;;;;;;1.36;100.00;102797.41;5111179;28;20073;-50
2023/11/22 05:32:50;;;;;;;17.15;8.80;;;;;;;1.30;100.00;102797.38;5113877;28;20052;-51
2023/11/22 05:35:20;;;;;;;17.13;9.18;;;;;;;1.29;100.00;102798.25;5113484;28;20460;-54
2023/11/22 05:37:48;;;;;;;15.45;8.82;;;;;;;1.27;100.00;102794.75;5112281;28;20059;-50
2023/11/22 05:40:16;;;;;;;17.35;9.70;;;;;;;1.23;100.00;102798.19;5113419;28;20443;-53
2023/11/22 05:42:44;;;;;;;17.73;9.52;;;;;;;1.20;100.00;102790.41;5110825;28;20444;-53
2023/11/22 05:45:12;;;;;;;17.13;9.75;;;;;;;1.18;100.00;102804.22;5110535;28;20390;-53
2023/11/22 05:47:42;;;;;;;16.67;9.35;;;;;;;1.14;100.00;102807.66;5111677;28;20044;-50
2023/11/22 05:50:11;;;;;;;17.20;9.77;;;;;;;1.11;100.00;102811.97;5110993;28;20078;-51
2023/11/22 05:52:41;;;;;;;16.38;9.40;;;;;;;1.12;100.00;102817.16;5110769;28;20773;-53
2023/11/22 05:55:10;;;;;;;17.73;9.73;;;;;;;1.10;100.00;102821.47;5108153;28;20463;-49
2023/11/22 05:57:38;;;;;;;19.00;10.00;;;;;;;1.12;100.00;102822.34;5109508;28;20368;-46
2023/11/22 06:00:07;;;;;;;16.52;9.55;;;;;;;1.11;100.00;102832.72;5109312;28;20047;-46
2023/11/22 06:02:38;;;;;;;19.38;10.43;;;;;;;1.13;100.00;102837.06;5109577;28;20041;-48
2023/11/22 06:05:09;;;;;;;20.08;10.80;;;;;;;1.13;100.00;102839.66;5108647;28;20418;-47
2023/11/22 06:07:38;;;;;;;18.00;9.88;;;;;;;1.16;100.00;102846.56;5109833;28;20052;-48
2023/11/22 06:10:08;;;;;;;21.15;10.55;;;;;;;1.15;100.00;102848.28;5110102;28;20046;-46
2023/11/22 06:12:37;;;;;;;19.33;10.40;;;;;;;1.14;100.00;102843.94;5112625;28;20040;-46
2023/11/22 06:15:06;;;;;;;18.73;10.68;;;;;;;1.16;100.00;102839.66;5110836;28;20129;-46
2023/11/22 06:17:34;;;;;;;19.63;10.38;;;;;;;1.17;100.00;102843.09;5109326;28;20050;-45
2023/11/22 06:20:03;;;;;;;18.95;10.35;;;;;;;1.18;100.00;102850.03;5107187;28;20414;-45
2023/11/22 06:22:32;;;;;;;16.50;9.98;;;;;;;1.16;100.00;102847.44;5107463;28;20047;-48
2023/11/22 06:25:00;;;;;;;19.77;10.00;;;;;;;1.16;100.00;102846.56;5108504;28;20457;-44
2023/11/22 06:27:29;;;;;;;18.40;9.82;;;;;;;1.16;100.00;102855.22;5109951;28;20043;-45
2023/11/22 06:29:57;;;;;;;18.35;9.70;;;;;;;1.18;100.00;102848.28;5112589;28;20495;-46
2023/11/22 06:32:26;;;;;;;18.95;10.75;;;;;;;1.19;100.00;102856.97;5112363;28;20085;-45
2023/11/22 06:34:54;;;;;;;18.95;10.23;;;;;;;1.18;100.00;102858.66;5111742;28;20116;-46
2023/11/22 06:37:22;;;;;;;19.63;11.02;;;;;;;1.21;100.00;102849.19;5108594;28;20059;-45
2023/11/22 06:39:53;;;;;;;19.83;11.38;;;;;;;1.20;100.00;102863.00;5108339;28;20050;-45
2023/11/22 06:42:22;;;;;;;18.17;9.95;;;;;;;1.21;100.00;102873.38;5107952;28;20130;-46
2023/11/22 06:44:52;;;;;;;18.10;9.80;;;;;;;1.20;100.00;102874.25;5109004;28;20043;-45
2023/11/22 06:47:21;;;;;;;18.80;10.35;;;;;;;1.21;100.00;102880.28;5108095;28;20055;-46
2023/11/22 06:49:49;;;;;;;18.27;10.00;;;;;;;1.22;100.00;102885.47;5111611;28;20056;-46
2023/11/22 06:52:18;;;;;;;18.38;10.25;;;;;;;1.22;100.00;102895.00;5113012;28;20109;-45
2023/11/22 06:54:47;;;;;;;20.80;11.18;;;;;;;1.23;100.00;102895.00;5113285;28;20063;-48
2023/11/22 06:57:15;;;;;;;21.30;10.75;;;;;;;1.24;100.00;102896.75;5111982;27;20059;-46
2023/11/22 06:59:43;;;;;;;20.35;10.40;;;;;;;1.25;100.00;102893.28;5113752;28;20054;-47
2023/11/22 07:02:14;;;;;;;18.52;9.80;;;;;;;1.27;100.00;102888.97;5112859;28;20082;-47
2023/11/22 07:04:42;;;;;;;20.75;11.07;;;;;;;1.29;100.00;102873.44;5113246;28;20051;-48
2023/11/22 07:07:11;;;;;;;20.77;10.65;;;;;;;1.26;100.00;102858.72;5112554;28;20044;-49
2023/11/22 07:09:42;;;;;;;18.13;10.23;;;;;;;1.28;100.00;102863.91;5113039;28;20040;-45
2023/11/22 07:12:11;;;;;;;17.55;10.55;;;;;;;1.29;100.00;102858.72;5110016;28;20066;-48
2023/11/22 07:14:39;;;;;;;20.45;10.82;;;;;;;1.30;100.00;102865.66;5113227;28;20047;-46
2023/11/22 07:17:07;;;;;;;21.08;11.20;;;;;;;1.31;100.00;102861.31;5113063;28;20065;-46
2023/11/22 07:19:38;;;;;;;20.20;11.70;;;;;;;1.33;100.00;102854.44;5115958;28;20066;-45
2023/11/22 07:22:15;;;;;;;17.52;10.13;;;;;;;1.34;100.00;102862.22;5113868;28;20108;-46
2023/11/22 07:24:45;;;;;;;19.05;10.35;;;;;;;1.35;100.00;102858.78;5112862;28;20050;-46
2023/11/22 07:27:13;;;;;;;22.00;11.68;;;;;;;1.40;100.00;102857.94;5111117;28;20035;-45
2023/11/22 07:29:42;;;;;;;20.65;10.25;;;;;;;1.40;100.00;102856.19;5112932;28;20059;-46
2023/11/22 07:32:10;;;;;;;21.73;11.07;;;;;;;1.42;100.00;102857.09;5111996;28;20054;-47
2023/11/22 07:34:41;;;;;;;19.90;11.35;;;;;;;1.47;100.00;102870.06;5114898;28;20028;-47
2023/11/22 07:37:09;;;;;;;19.75;10.70;;;;;;;1.52;100.00;102864.03;5112097;28;20486;-48
2023/11/22 07:39:39;;;;;;;22.05;11.85;;;;;;;1.59;100.00;102862.34;5113279;28;20399;-45
2023/11/22 07:42:08;;;;;;;24.42;13.43;;;;;;;1.63;100.00;102852.84;5115241;28;20048;-46
2023/11/22 07:44:37;;;;;;;20.40;11.05;;;;;;;1.71;100.00;102861.53;5114265;28;20073;-47
2023/11/22 07:47:10;;;;;;;23.45;12.43;;;;;;;1.74;100.00;102869.31;5110615;28;20056;-47
2023/11/22 07:49:41;;;;;;;23.02;12.10;;;;;;;1.79;100.00;102870.22;5112207;28;20040;-45
2023/11/22 07:52:13;;;;;;;22.98;12.35;;;;;;;1.82;100.00;102879.75;5112020;28;20081;-46
2023/11/22 07:54:42;;;;;;;21.85;12.40;;;;;;;1.88;100.00;102890.13;5113983;28;20414;-46
2023/11/22 07:57:10;;;;;;;22.98;12.73;;;;;;;1.97;100.00;102891.91;5115284;28;20489;-48
2023/11/22 07:59:38;;;;;;;20.73;12.27;;;;;;;2.11;100.00;102891.97;5112976;28;20036;-49
2023/11/22 08:02:10;;;;;;;22.27;12.05;;;;;;;2.22;100.00;102886.78;5111292;28;20054;-49
2023/11/22 08:04:40;;;;;;;;;;;;;;;2.20;100.00;102885.06;5110552;28;20051;-47
2023/11/22 08:07:11;;;;;;;20.85;12.23;;;;;;;2.18;100.00;102876.41;5111516;28;19920;-47
2023/11/22 08:09:39;;;;;;;24.00;12.57;;;;;;;2.25;100.00;102879.88;5114000;28;20056;-46
2023/11/22 08:12:07;;;;;;;24.00;12.88;;;;;;;2.33;100.00;102885.97;5110330;28;20454;-46
2023/11/22 08:14:35;;;;;;;21.67;11.65;;;;;;;2.47;100.00;102898.97;5112147;28;20047;-47
2023/11/22 08:17:05;;;;;;;21.92;12.40;;;;;;;2.49;100.00;102904.16;5115030;28;20058;-48
2023/11/22 08:19:33;;;;;;;25.50;14.07;;;;;;;2.61;100.00;102922.38;5113812;28;20054;-46
2023/11/22 08:22:03;;;;;;;22.60;12.63;;;;;;;2.69;100.00;102922.38;5111817;28;20079;-47
2023/11/22 08:24:33;;;;;;;21.30;12.15;;;;;;;2.74;100.00;102918.06;5114105;28;20050;-49
2023/11/22 08:27:03;;;;;;;22.95;12.43;;;;;;;2.81;100.00;102922.41;5115105;28;20513;-50
2023/11/22 08:29:31;;;;;;;22.65;13.15;;;;;;;2.84;100.00;102914.59;5114531;27;20126;-51
2023/11/22 08:32:02;;;;;;;22.42;13.02;;;;;;;2.90;100.00;102908.53;5110512;28;20074;-47
2023/11/22 08:34:30;;;;;;;22.45;12.77;;;;;;;2.95;100.00;102929.34;5111462;28;20074;-46
2023/11/22 08:36:58;;;;;;;21.10;12.25;;;;;;;2.92;100.00;102924.13;5111480;28;20054;-46
2023/11/22 08:39:27;;;;;;;21.13;13.48;;;;;;;2.91;100.00;102935.41;5111088;28;20184;-48
2023/11/22 08:41:58;;;;;;;21.27;13.45;;;;;;;2.93;100.00;102936.25;5114038;28;20043;-49
2023/11/22 08:44:26;;;;;;;21.88;12.40;;;;;;;2.96;100.00;102942.31;5110603;28;20047;-46
2023/11/22 08:46:54;;;;;;;21.13;12.77;;;;;;;2.96;100.00;102936.25;5112556;28;20118;-45
2023/11/22 08:49:22;;;;;;;21.50;12.77;;;;;;;3.02;100.00;102934.50;5114315;28;20047;-45
2023/11/22 08:51:50;;;;;;;27.00;12.73;;;;;;;3.00;100.00;102932.78;5111831;27;20051;-47
2023/11/22 08:54:21;;;;;;;20.60;11.70;;;;;;;3.05;100.00;102936.25;5110818;28;20046;-46
2023/11/22 08:56:49;;;;;;;20.83;12.55;;;;;;;3.05;100.00;102936.25;5113657;28;20495;-47
2023/11/22 08:59:19;;;;;;;20.92;12.77;;;;;;;3.06;100.00;102938.00;5110111;28;20113;-46
2023/11/22 09:01:47;;;;;;;21.25;12.43;;;;;;;3.14;100.00;102938.00;5110867;28;20752;-47
2023/11/22 09:04:15;;;;;;;20.63;12.48;;;;;;;3.17;100.00;102946.66;5112537;28;20050;-46
2023/11/22 09:06:44;;;;;;;19.75;12.23;;;;;;;3.21;100.00;102947.53;5113795;28;20498;-45
2023/11/22 09:09:15;;;;;;;24.73;12.90;;;;;;;3.25;100.00;102945.78;5109902;28;20463;-47
2023/11/22 09:11:43;;;;;;;22.70;13.85;;;;;;;3.25;100.00;102938.84;5109721;28;20109;-46
2023/11/22 09:14:12;;;;;;;22.45;13.98;;;;;;;3.28;100.00;102949.25;5110477;28;20386;-48
2023/11/22 09:16:45;;;;;;;23.23;14.93;;;;;;;3.36;100.00;102941.44;5112601;28;20045;-49
2023/11/22 09:19:14;;;;;;;22.10;13.80;;;;;;;3.40;100.00;102935.38;5113741;28;20048;-47
2023/11/22 09:21:42;;;;;;;24.17;14.82;;;;;;;3.47;100.00;102936.22;5114068;28;20052;-48
2023/11/22 09:24:11;;;;;;;24.75;15.35;;;;;;;3.51;100.00;102931.00;5113445;28;20122;-49
2023/11/22 09:26:39;;;;;;;26.00;15.68;;;;;;;3.59;100.00;102933.59;5113351;28;20171;-48
2023/11/22 09:29:07;;;;;;;21.30;14.68;;;;;;;3.58;100.00;102944.00;5113117;28;20059;-48
2023/11/22 09:31:36;;;;;;;20.80;14.30;;;;;;;3.54;100.00;102943.13;5113496;28;20399;-50
2023/11/22 09:34:06;;;;;;;22.30;13.93;;;;;;;3.61;100.00;102939.63;5110228;28;20075;-48
2023/11/22 09:36:34;;;;;;;22.25;14.98;;;;;;;3.65;100.00;102937.91;5110259;28;20043;-45
2023/11/22 09:39:03;;;;;;;24.73;15.13;;;;;;;3.73;100.00;102943.94;5110270;28;20047;-46
2023/11/22 09:41:31;;;;;;;22.02;13.63;;;;;;;3.80;100.00;102947.41;5108210;28;20071;-49
2023/11/22 09:43:59;;;;;;;23.70;14.57;;;;;;;3.82;100.00;102940.47;5110357;28;20119;-49
2023/11/22 09:46:29;;;;;;;20.98;14.07;;;;;;;3.84;100.00;102939.56;5112611;27;20506;-46
2023/11/22 09:48:58;;;;;;;22.48;13.88;;;;;;;3.83;100.00;102929.16;5113308;28;20541;-45
2023/11/22 09:51:32;;;;;;;21.20;13.80;;;;;;;3.88;100.00;102948.25;5111770;28;20048;-45
2023/11/22 09:54:04;;;;;;;21.48;14.30;;;;;;;3.93;100.00;102943.00;5110322;28;20120;-46
2023/11/22 09:56:32;;;;;;;;;;;;;;;4.04;100.00;102943.84;5109067;28;20093;-46
2023/11/22 09:59:05;;;;;;;23.08;12.98;;;;;;;4.01;100.00;102944.72;5109964;28;19923;-47
2023/11/22 10:01:36;;;;;;;20.88;13.95;;;;;;;4.04;100.00;102936.91;5109700;28;20059;-47
2023/11/22 10:04:05;;;;;;;19.85;12.98;;;;;;;4.10;100.00;102940.34;5109711;28;20036;-46
2023/11/22 10:06:35;;;;;;;19.90;12.63;;;;;;;4.15;100.00;102942.06;5111644;28;20047;-47
2023/11/22 10:09:08;;;;;;;19.85;12.93;;;;;;;4.22;100.00;102935.94;5112695;28;20127;-46
2023/11/22 10:11:38;;;;;;;21.75;13.93;;;;;;;4.29;100.00;102926.34;5107546;28;20100;-46
2023/11/22 10:14:08;;;;;;;23.02;13.90;;;;;;;4.34;100.00;102939.38;5109135;27;20461;-45
2023/11/22 10:16:39;;;;;;;20.70;12.23;;;;;;;4.30;100.00;102948.94;5109537;28;20101;-46
2023/11/22 10:19:08;;;;;;;20.30;12.02;;;;;;;4.36;100.00;102945.44;5109350;28;20058;-45
2023/11/22 10:21:39;;;;;;;17.90;11.85;;;;;;;4.42;100.00;102950.63;5109539;28;20044;-46
2023/11/22 10:24:09;;;;;;;18.58;11.85;;;;;;;4.42;100.00;102950.63;5111670;28;20040;-48
2023/11/22 10:26:38;;;;;;;20.55;10.75;;;;;;;4.42;100.00;102953.22;5112367;28;20066;-50
2023/11/22 10:29:08;;;;;;;18.50;11.30;;;;;;;4.47;100.00;102946.25;5112242;28;20054;-48
2023/11/22 10:31:40;;;;;;;17.27;10.85;;;;;;;4.53;100.00;102950.56;5112507;28;20440;-46
2023/11/22 10:34:10;;;;;;;18.67;11.45;;;;;;;4.59;100.00;102940.06;5109314;28;20797;-47
2023/11/22 10:36:39;;;;;;;18.08;11.18;;;;;;;4.60;100.00;102939.22;5108870;28;20040;-47
2023/11/22 10:39:15;;;;;;;19.17;11.25;;;;;;;4.64;100.00;102937.47;5107796;28;20055;-45
2023/11/22 10:41:43;;;;;;;18.88;11.00;;;;;;;4.71;100.00;102921.75;5108009;28;20743;-47
2023/11/22 10:44:12;;;;;;;17.98;11.32;;;;;;;4.73;100.00;102914.78;5111002;28;20056;-47
2023/11/22 10:46:40;;;;;;;18.58;11.13;;;;;;;4.60;100.00;102912.28;5112055;28;20102;-46
2023/11/22 10:49:09;;;;;;;18.25;11.60;;;;;;;4.72;100.00;102907.00;5112619;28;20126;-46
2023/11/22 10:51:42;;;;;;;18.27;11.73;;;;;;;4.73;100.00;102893.06;5112352;28;20044;-49
2023/11/22 10:54:10;;;;;;;18.50;11.02;;;;;;;4.68;100.00;102897.47;5112262;28;20042;-47
2023/11/22 10:56:42;;;;;;;18.15;11.25;;;;;;;4.63;100.00;102888.81;5109094;28;20040;-47
2023/11/22 10:59:14;;;;;;;18.60;10.63;;;;;;;4.73;100.00;102891.34;5109144;28;20040;-46
2023/11/22 11:01:46;;;;;;;17.27;11.25;;;;;;;4.81;100.00;102887.78;5109181;28;20055;-47
2023/11/22 11:04:20;;;;;;;17.88;11.00;;;;;;;4.93;100.00;102877.25;5111991;28;20048;-45
2023/11/22 11:06:55;;;;;;;18.17;11.18;;;;;;;4.93;100.00;102885.06;5110423;28;20058;-45
2023/11/22 11:09:31;;;;;;;18.02;11.73;;;;;;;4.96;100.00;102878.97;5108545;28;20128;-47
2023/11/22 11:12:03;;;;;;;16.23;11.18;;;;;;;4.96;100.00;102881.56;5111021;28;20046;-45
2023/11/22 11:14:36;;;;;;;17.85;10.80;;;;;;;4.97;100.00;102892.00;5110754;28;20058;-47
2023/11/22 11:17:06;;;;;;;17.95;10.98;;;;;;;4.93;100.00;102882.47;5108725;28;20581;-45
2023/11/22 11:19:35;;;;;;;17.77;11.43;;;;;;;5.02;100.00;102881.53;5109085;28;20572;-45